Latest Weather Observations for Shepparton

IDV60801

Issued at 3:31 am EDT Saturday 31 January 2015 (issued every 30 minutes, with the page automatically refreshed every 10 minutes)

About weather observations | Map of weather stations | Latest weather observations for VIC | Other Formats
Station Details ID: 081125 Name: SHEPPARTON AIRPORT Lat: -36.43 Lon: 145.39 Height: 113.9 m
Data from the previous 72 hours. | See also: Recent months at Shepparton
Date/Time
EDT
Temp
°C
App
Temp
°C
Dew
Point
Rel
Hum
%
Delta-T
°C
Wind Press
QNH
hPa
Press
MSL
hPa
Rain
since 9 am
mm
Dir
 
Spd
km/h
Gust
km/h
Spd
kts
Gust
kts
31/03:30am 13.1 9.0 8.0 71 2.5 S 19 24 10 13 1010.5 1009.9 0.0
31/03:00am 13.1 9.0 8.0 71 2.5 S 19 26 10 14 1010.7 1010.1 0.0
31/02:30am 13.5 9.4 7.9 69 2.8 S 19 26 10 14 1010.9 1010.4 0.0
31/02:00am 14.0 10.0 8.2 68 2.9 S 19 24 10 13 1011.0 1010.5 0.0
31/01:30am 14.5 9.5 8.2 66 3.2 S 24 33 13 18 1011.0 1010.5 0.0
31/01:00am 14.7 10.5 8.2 65 3.3 S 20 28 11 15 1011.2 1010.7 0.0
31/12:30am 15.0 10.8 8.3 64 3.4 S 20 26 11 14 1011.3 1010.8 0.0
31/12:00am 15.3 11.1 8.1 62 3.6 S 20 30 11 16 1011.2 1010.7 0.0
 
Date/Time
EDT
Temp
°C
App
Temp
°C
Dew
Point
Rel
Hum
%
Delta-T
°C
Wind Press
QNH
hPa
Press
MSL
hPa
Rain
since 9 am
mm
Dir
 
Spd
km/h
Gust
km/h
Spd
kts
Gust
kts
30/11:30pm 15.7 11.6 8.0 60 3.9 S 19 26 10 14 1011.4 1010.9 0.0
30/11:00pm 16.0 11.7 7.7 58 4.2 S 20 28 11 15 1011.5 1011.0 0.0
30/10:30pm 16.4 11.7 7.6 56 4.4 S 22 28 12 15 1011.5 1011.0 0.0
30/10:00pm 16.9 11.8 7.5 54 4.7 S 24 33 13 18 1011.6 1011.1 0.0
30/09:30pm 17.5 12.0 7.5 52 5.1 S 26 39 14 21 1011.5 1011.0 0.0
30/09:00pm 18.0 11.6 7.1 49 5.5 S 30 39 16 21 1011.1 1010.6 0.0
30/08:30pm 19.1 12.3 6.9 45 6.2 S 32 43 17 23 1010.6 1010.0 0.0
30/08:00pm 20.7 14.4 5.5 37 7.6 S 28 41 15 22 1010.3 1009.7 0.0
30/07:30pm 21.9 15.8 4.9 33 8.4 S 26 33 14 18 1010.0 1009.5 0.0
30/07:00pm 22.2 14.8 3.8 30 9.0 S 32 39 17 21 1009.7 1009.2 0.0
30/06:30pm 23.4 16.0 3.9 28 9.6 S 32 44 17 24 1009.7 1009.2 0.0
30/06:00pm 23.5 16.8 3.4 27 9.8 S 28 39 15 21 1009.7 1009.2 0.0
30/05:30pm 23.5 16.5 4.0 28 9.6 S 30 41 16 22 1009.8 1009.3 0.0
30/05:00pm 24.3 16.9 4.1 27 10.0 S 32 44 17 24 1010.0 1009.5 0.0
30/04:37pm 23.1 16.4 3.6 28 9.5 S 28 46 15 25 1010.5 1009.9 0.0
30/04:30pm 23.8 17.9 3.7 27 9.9 S 24 46 13 25 1010.5 1009.9 0.0
30/04:00pm 24.4 17.8 4.2 27 10.1 S 28 39 15 21 1010.8 1010.2 0.0
30/03:30pm 23.5 15.9 4.0 28 9.6 S 33 46 18 25 1011.2 1010.7 0.0
30/03:25pm 23.3 16.5 3.3 27 9.7 SSE 28 46 15 25 1011.2 1010.7 0.0
30/03:00pm 23.1 15.5 3.1 27 9.7 S 32 44 17 24 1011.6 1011.1 0.0
30/02:30pm 22.4 15.7 3.5 29 9.2 S 28 41 15 22 1011.9 1011.4 0.0
30/02:21pm 22.0 14.4 2.7 28 9.2 SSW 32 52 17 28 1012.0 1011.5 0.0
30/02:18pm 23.4 16.3 3.4 27 9.7 SSW 30 52 16 28 1012.0 1011.5 0.0
30/02:00pm 24.3 17.3 4.1 27 10.0 S 30 41 16 22 1012.3 1011.8 0.0
30/01:30pm 22.6 16.6 3.2 28 9.4 SSW 24 39 13 21 1012.5 1012.0 0.0
30/01:13pm 22.7 15.7 2.2 26 9.7 S 28 46 15 25 1012.7 1012.2 0.0
30/01:00pm 22.8 16.4 3.4 28 9.4 SSW 26 43 14 23 1012.9 1012.4 0.0
30/12:30pm 21.4 16.4 3.6 31 8.6 S 19 37 10 20 1013.2 1012.7 0.0
30/12:00pm 21.4 13.6 1.6 27 9.2 S 32 48 17 26 1013.6 1013.1 0.0
30/11:30am 21.2 13.9 4.7 34 8.1 SSE 32 46 17 25 1013.9 1013.4 0.0
30/11:00am 20.4 15.0 6.4 40 7.1 SSE 24 32 13 17 1014.2 1013.7 0.0
30/10:30am 19.4 13.7 6.5 43 6.5 SSE 26 35 14 19 1014.4 1013.9 0.0
30/10:00am 18.5 13.2 6.7 46 5.9 S 24 35 13 19 1014.8 1014.3 0.0
30/09:30am 16.7 12.5 5.9 49 5.3 SSW 17 26 9 14 1014.9 1014.4 0.0
30/09:00am 16.6 12.3 7.0 53 4.8 S 19 28 10 15 1015.1 1014.6 0.0
30/08:30am 15.2 10.7 7.0 58 4.0 S 20 24 11 13 1015.1 1014.6 0.0
30/08:00am 13.8 9.9 7.1 64 3.3 S 17 22 9 12 1014.8 1014.3 0.0
30/07:30am 12.6 9.0 6.9 68 2.8 SSW 15 17 8 9 1014.5 1014.0 0.0
30/07:00am 11.5 7.8 6.4 71 2.4 S 15 20 8 11 1014.3 1013.8 0.0
30/06:30am 10.9 8.0 6.3 73 2.2 S 11 15 6 8 1014.1 1013.6 0.0
30/06:00am 11.7 7.1 6.4 70 2.5 SSE 20 24 11 13 1013.8 1013.3 0.0
30/05:30am 11.7 8.1 6.6 71 2.4 S 15 19 8 10 1013.8 1013.3 0.0
30/05:00am 12.3 8.3 6.6 68 2.7 S 17 20 9 11 1013.5 1013.0 0.0
30/04:30am 12.3 9.0 6.6 68 2.7 SSE 13 17 7 9 1013.6 1013.1 0.0
30/04:00am 13.0 9.0 6.8 66 3.0 SSE 17 20 9 11 1013.9 1013.4 0.0
30/03:30am 13.3 9.3 6.6 64 3.2 S 17 22 9 12 1014.0 1013.5 0.0
30/03:00am 14.3 9.7 6.4 59 3.8 SSE 20 26 11 14 1014.2 1013.7 0.0
30/02:30am 14.4 10.0 6.5 59 3.8 SSE 19 28 10 15 1014.3 1013.8 0.0
30/02:00am 14.7 10.7 6.5 58 4.0 SSE 17 20 9 11 1014.5 1014.0 0.0
30/01:30am 14.8 11.2 6.6 58 4.0 SSE 15 20 8 11 1014.7 1014.2 0.0
30/01:00am 15.1 10.7 6.4 56 4.2 SSE 19 22 10 12 1014.9 1014.4 0.0
30/12:30am 15.4 11.7 6.4 55 4.4 SSE 15 19 8 10 1015.1 1014.6 0.0
30/12:00am 15.8 12.5 6.5 54 4.6 SSE 13 19 7 10 1015.2 1014.7 0.0
 
Date/Time
EDT
Temp
°C
App
Temp
°C
Dew
Point
Rel
Hum
%
Delta-T
°C
Wind Press
QNH
hPa
Press
MSL
hPa
Rain
since 9 am
mm
Dir
 
Spd
km/h
Gust
km/h
Spd
kts
Gust
kts
29/11:30pm 16.5 12.4 6.3 51 5.0 SE 17 24 9 13 1015.1 1014.6 0.0
29/11:00pm 16.9 12.3 6.7 51 5.1 SE 20 26 11 14 1015.0 1014.5 0.0
29/10:30pm 17.6 12.3 6.8 49 5.4 SSE 24 32 13 17 1015.1 1014.6 0.0
29/10:00pm 18.0 12.7 6.8 48 5.6 SSE 24 35 13 19 1014.9 1014.4 0.0
29/09:30pm 18.7 13.0 6.9 46 6.0 SSE 26 35 14 19 1014.7 1014.2 0.0
29/09:00pm 19.4 12.4 6.2 42 6.6 SE 32 43 17 23 1014.3 1013.8 0.0
29/08:30pm 20.6 14.3 5.8 38 7.4 SSE 28 33 15 18 1014.0 1013.5 0.0
29/08:00pm 21.8 14.9 4.8 33 8.4 SSE 30 43 16 23 1013.5 1013.0 0.0
29/07:30pm 22.9 15.6 4.4 30 9.2 SSE 32 39 17 21 1013.2 1012.7 0.0
29/07:00pm 24.0 16.7 4.4 28 9.8 SSE 32 39 17 21 1012.9 1012.4 0.0
29/06:54pm 23.7 16.3 4.1 28 9.7 SSE 32 50 17 27 1012.9 1012.4 0.0
29/06:30pm 24.2 16.7 3.5 26 10.2 SSE 32 39 17 21 1012.7 1012.2 0.0
29/06:00pm 24.9 17.3 3.0 24 10.7 SE 32 43 17 23 1012.7 1012.2 0.0
29/05:30pm 25.9 19.5 3.2 23 11.2 SE 26 35 14 19 1012.8 1012.3 0.0
29/05:15pm 25.3 17.5 2.7 23 11.0 SSE 33 52 18 28 1012.8 1012.3 0.0
29/05:00pm 25.5 18.3 2.9 23 11.1 SSE 30 46 16 25 1013.1 1012.6 0.0
29/04:41pm 25.9 18.9 1.9 21 11.6 SSE 28 54 15 29 1013.2 1012.7 0.0
29/04:30pm 26.8 20.6 2.0 20 12.1 SE 24 39 13 21 1013.4 1012.9 0.0
29/04:00pm 25.7 18.5 0.4 19 11.9 SE 28 43 15 23 1013.6 1013.1 0.0
29/03:42pm 25.5 18.3 0.9 20 11.6 SE 28 48 15 26 1013.9 1013.4 0.0
29/03:30pm 25.3 18.3 -0.7 18 11.9 SSE 26 37 14 20 1014.1 1013.6 0.0
29/03:00pm 25.6 18.2 -0.5 18 12.0 SSE 28 46 15 25 1014.6 1014.1 0.0
29/02:30pm 24.0 17.8 2.2 24 10.4 SSE 24 37 13 20 1014.9 1014.4 0.0
29/02:00pm 24.2 18.0 2.4 24 10.5 SE 24 33 13 18 1015.2 1014.7 0.0
29/01:30pm 23.8 17.8 3.2 26 10.0 S 24 35 13 19 1015.5 1015.0 0.0
29/01:00pm 23.6 19.3 3.0 26 10.0 SE 15 24 8 13 1015.9 1015.4 0.0
29/12:30pm 23.8 20.2 3.2 26 10.0 SE 11 30 6 16 1016.2 1015.7 0.0
29/12:00pm 23.7 19.5 3.6 27 9.8 S 15 28 8 15 1016.6 1016.1 0.0
29/11:30am 21.4 16.7 3.1 30 8.7 SSE 17 26 9 14 1017.1 1016.6 0.0
29/11:00am 21.6 16.8 4.7 33 8.3 SE 19 32 10 17 1017.3 1016.8 0.0
29/10:30am 20.6 16.2 4.6 35 7.8 SE 17 35 9 19 1017.4 1016.9 0.0
29/10:00am 19.6 14.6 4.5 37 7.3 SSE 20 32 11 17 1017.6 1017.1 0.0
29/09:30am 19.2 13.8 4.6 38 7.1 SSE 22 30 12 16 1017.7 1017.2 0.0
29/09:00am 18.1 13.2 3.9 39 6.7 SSE 19 24 10 13 1017.7 1017.2 0.0
29/08:30am 16.6 11.2 4.6 45 5.7 SSE 22 28 12 15 1017.5 1017.0 0.0
29/08:00am 15.3 10.5 4.9 50 4.9 SSE 19 24 10 13 1017.4 1016.9 0.0
29/07:30am 13.8 9.9 5.2 56 4.0 SSE 15 20 8 11 1017.0 1016.5 0.0
29/07:00am 12.1 8.6 5.3 63 3.2 S 13 17 7 9 1016.6 1016.1 0.0
29/06:30am 11.4 8.2 5.1 65 2.9 S 11 15 6 8 1016.5 1016.0 0.0
29/06:00am 12.0 8.5 5.4 64 3.1 S 13 15 7 8 1016.3 1015.8 0.0
29/05:30am 12.3 8.8 5.5 63 3.2 S 13 17 7 9 1016.1 1015.6 0.0
29/05:00am 12.1 8.6 5.5 64 3.1 SSE 13 15 7 8 1015.9 1015.4 0.0
29/04:30am 12.7 9.2 5.4 61 3.4 SSE 13 17 7 9 1015.8 1015.3 0.0
29/04:00am 13.1 9.2 5.5 60 3.6 SSE 15 19 8 10 1015.8 1015.3 0.0
29/03:30am 13.3 9.8 5.5 59 3.7 SSE 13 17 7 9 1015.8 1015.3 0.0
29/03:00am 13.8 9.9 5.4 57 4.0 SSE 15 19 8 10 1015.8 1015.3 0.0
29/02:30am 14.2 10.7 5.6 56 4.1 SSE 13 19 7 10 1016.1 1015.6 0.0
29/02:00am 15.2 11.0 5.7 53 4.6 SSE 17 22 9 12 1016.2 1015.7 0.0
29/01:30am 15.3 11.1 5.5 52 4.7 SSE 17 20 9 11 1016.5 1016.0 0.0
29/01:00am 16.1 11.8 5.4 49 5.1 SSE 17 24 9 13 1016.6 1016.1 0.0
29/12:30am 16.8 12.0 5.4 47 5.5 SSE 20 26 11 14 1016.5 1016.0 0.0
29/12:00am 17.4 12.6 5.4 45 5.8 SSE 20 30 11 16 1016.4 1015.9 0.0
 
Date/Time
EDT
Temp
°C
App
Temp
°C
Dew
Point
Rel
Hum
%
Delta-T
°C
Wind Press
QNH
hPa
Press
MSL
hPa
Rain
since 9 am
mm
Dir
 
Spd
km/h
Gust
km/h
Spd
kts
Gust
kts
28/11:30pm 17.8 13.0 5.4 44 6.0 SSE 20 28 11 15 1016.3 1015.8 0.0
28/11:00pm 18.5 12.1 5.4 42 6.4 SSE 28 35 15 19 1016.0 1015.5 0.0
28/10:30pm 19.0 12.7 5.5 41 6.6 SSE 28 37 15 20 1015.8 1015.3 0.0
28/10:00pm 19.6 12.8 5.3 39 7.0 SSE 30 44 16 24 1015.6 1015.1 0.0
28/09:30pm 20.3 13.2 5.5 38 7.3 SE 32 43 17 23 1015.2 1014.7 0.0
28/09:00pm 20.9 14.1 5.3 36 7.7 SE 30 39 16 21 1014.7 1014.2 0.0
28/08:43pm 21.4 14.3 5.3 35 8.0 SE 32 50 17 27 1014.5 1014.0 0.0
28/08:30pm 21.6 15.0 5.9 36 7.9 SE 30 39 16 21 1014.3 1013.8 0.0
28/08:00pm 23.1 16.1 6.8 35 8.4 SE 33 44 18 24 1013.8 1013.3 0.0
28/07:30pm 24.7 17.0 5.5 29 9.8 SSE 35 43 19 23 1013.3 1012.8 0.0
28/07:12pm 25.4 18.3 5.6 28 10.2 SE 32 50 17 27 1013.0 1012.5 0.0
28/07:00pm 26.3 19.6 3.5 23 11.4 SSE 28 43 15 23 1012.8 1012.3 0.0
28/06:30pm 27.3 20.7 4.4 23 11.7 SSE 28 41 15 22 1012.5 1012.0 0.0
28/06:00pm 27.4 21.8 5.6 25 11.3 SSE 24 33 13 18 1012.4 1011.9 0.0
28/05:30pm 27.3 22.0 6.7 27 10.9 SSE 24 41 13 22 1012.4 1011.9 0.0
28/05:00pm 26.6 21.1 7.6 30 10.2 SSE 26 35 14 19 1012.5 1012.0 0.0
28/04:49pm 26.8 20.7 6.8 28 10.6 SSE 28 46 15 25 1012.4 1011.9 0.0
28/04:30pm 26.4 21.1 6.9 29 10.3 SSE 24 32 13 17 1012.6 1012.1 0.0
28/04:00pm 28.4 24.0 7.6 27 11.3 S 20 33 11 18 1012.7 1012.2 0.0
28/03:30pm 27.7 24.2 8.6 30 10.5 SSE 17 30 9 16 1013.0 1012.5 0.0
28/03:00pm 26.7 22.9 9.1 33 9.7 S 19 30 10 16 1013.4 1012.9 0.0
28/02:30pm 27.1 23.5 9.9 34 9.6 SSW 19 30 10 16 1013.8 1013.3 0.0
28/02:00pm 26.1 23.1 9.4 35 9.2 SSW 15 30 8 16 1014.1 1013.6 0.0
28/01:30pm 26.2 23.4 10.0 36 9.0 SSE 15 24 8 13 1014.4 1013.9 0.0
28/01:00pm 25.2 23.3 9.1 36 8.8 SSE 9 20 5 11 1014.4 1013.9 0.0
28/12:30pm 26.0 23.8 9.4 35 9.2 SSE 11 20 6 11 1014.5 1014.0 0.0
28/12:00pm 24.7 22.5 9.4 38 8.4 SSE 11 19 6 10 1014.8 1014.3 0.0
28/11:30am 23.0 20.5 8.3 39 7.8 SE 11 20 6 11 1015.0 1014.5 0.0
28/11:00am 23.0 20.6 8.7 40 7.7 SE 11 20 6 11 1015.3 1014.8 0.0
28/10:30am 22.6 19.5 9.0 42 7.3 SE 15 22 8 12 1015.3 1014.8 0.0
28/10:00am 20.9 17.3 8.5 45 6.5 SSE 17 22 9 12 1015.4 1014.9 0.0
28/09:30am 19.6 15.0 8.3 48 5.9 SSE 22 28 12 15 1015.4 1014.9 0.0
28/09:00am 18.7 14.4 9.2 54 5.0 SSE 22 28 12 15 1015.2 1014.7 0.0
28/08:30am 17.3 12.8 8.7 57 4.5 SSE 22 30 12 16 1015.1 1014.6 0.0
28/08:00am 16.0 11.4 8.2 60 4.0 S 22 30 12 16 1014.7 1014.2 0.0
28/07:30am 14.7 10.7 8.4 66 3.2 S 19 24 10 13 1014.4 1013.9 0.0
28/07:00am 14.0 10.4 8.2 68 2.9 S 17 22 9 12 1014.1 1013.6 0.0
28/06:30am 14.2 10.2 8.2 67 3.0 S 19 24 10 13 1013.9 1013.4 0.0
28/06:00am 14.2 10.0 8.2 67 3.0 S 20 28 11 15 1013.5 1013.0 0.0
28/05:30am 13.8 9.7 8.0 68 2.9 S 19 26 10 14 1013.2 1012.7 0.0
28/05:00am 13.7 9.4 7.9 68 2.9 S 20 26 11 14 1013.1 1012.6 0.0
28/04:30am 13.5 9.2 7.9 69 2.8 S 20 32 11 17 1013.0 1012.5 0.0
28/04:00am 13.3 9.6 8.0 70 2.6 S 17 24 9 13 1013.0 1012.5 0.0

Other Formats:

Comma delimited format used in spreadsheet applications
http://www.bom.gov.au/fwo/IDV60801/IDV60801.94875.axf

JavaScript Object Notation format (JSON) in row-major order
http://www.bom.gov.au/fwo/IDV60801/IDV60801.94875.json